SBOSBO ANU / TAPA
Speedbird OnlineSpeedbird Online ANU / TAPA

V.C. Bird International Airport
18:58 24°C

Location Antigua, Antigua and Barbuda
Latitude: 17.1367
Longitude: -61.792702
Web Wikipedia
Altitude 19 Meter / 62 Feet
Distance 6,593 KM / 4,097 Miles
from London.
Time Zone UTC -4 hours (America/Antigua)
Codes IATA: ANU
ICAO: TAPA
Currency £1 equals XCD 3.27
Runways
RunwayLength (m)Surface
072744Asphalt
252744Asphalt
Radio
TypeDescriptionFrequency
APPAPP119.1
ATISATIS114.5
GNDGND121.9
RDOANTIQUA RDO26.48
TWRTWR118.2
Live ATC
METAR TAPA 081402Z 07010KT 9999 SCT019 25/22 Q1019 RESHRA NOSIG
TAF TAF TAPA 081100Z 0812/0912 07015KT 9999 SCT020 PROB30 TEMPO 0812/0818 07015G25KT SHRA TEMPO 0904/0912 07015G25KT SHRA
Weather As Of 08 Feb 2023 18:58
Description Scattered clouds
Wind 20 km/h from East (80°)
Cloud Cover 40%
Precipitation Rain: none, Snow: none
Sunrise 06:36
Sunset 18:06
Lounges Executive Lounge, Main Terminal
Rotations During the last 90 days there were
73 flights from LGW
25 flights from SKB
24 flights from TAB
9 flights from GND
6 flights from PLS
1 flights from ANU
84 flights to LGW
26 flights to TAB
24 flights to SKB
9 flights to GND
6 flights to PLS
1 flights to ANU



Support Speedbird Online

© 2017-2023 Speedbird Online